Budapest, Hungary

5:11 AM CET on February 08, 2016 (GMT +0100)
Budapest | | Change Station
CLOSE
Current Station
Personal Weather Station
Location: Szentimrevaros, BUDAPEST
Elevation: 377 ft
Nearby Weather Stations

Elev 377 ft 47.48 °N, 19.05 °E | Updated 1 minute ago

Clear
Clear
39.9 °F
Feels Like 39.9 °F
N
3.0
Wind Variable Wind from South
Gusts 4.0 mph

Today
High -- | Low -- °F
--% Chance of Precip.
Yesterday
High -- | Low -- °F
Precip. -- in
Pressure 30.01 in
Visibility -9999.0 miles
Clouds
Dew Point 34.2 °F
Humidity 80%
Rainfall 0.00 in
Snow Depth Not available.
7:01 AM 4:55 PM
Waning Crescent, 0% visible
METAR LHBP 080400Z 13006KT CAVOK 01/01 Q1016 NOSIG
Pressure 30.01 in
Visibility -9999.0 miles
Clouds
Dew Point 34.2 °F
Humidity 80%
Rainfall 0.00 in
Snow Depth Not available.
7:01 AM 4:55 PM
Waning Crescent, 0% visible
METAR LHBP 080400Z 13006KT CAVOK 01/01 Q1016 NOSIG

10-Day Weather Forecast

Almanac

Astronomy

Feb. 08, 2016 Rise Set
Actual Time
Civil Twilight
Nautical Twilight
Astronomical Twilight
Moon
Length of Visible Light
Length of Day
Tomorrow will be .
, % of the Moon is Illuminated

Today's Extremes

Country Highs Country Lows

Community

WunderPhotos

Upload Photos

1,891,379 photos uploaded!

WunderBlog® & News

Nearby

Air Quality

  Air Quality AQ Index Pollutant
Not available.

Snow Depth

Station Depth Elevation

Earthquake Activity

City Distance Mag. Time & Date
Minimum magnitude displayed is 2.5.

Coastal Water Temperatures

Place Temperature

Stations

Nearby Weather Stations

Station Location Temp. Windchill Dew Point Humidity Wind Precip. Elev Updated Type